createdAt,value
2019-02-09T00:00:51.494Z,2.80
2019-02-09T00:01:56.337Z,2.70
2019-02-09T00:03:01.372Z,2.70
2019-02-09T00:04:06.372Z,2.80
2019-02-09T00:05:11.689Z,2.70
2019-02-09T00:06:16.537Z,2.70
2019-02-09T00:07:21.382Z,2.70
2019-02-09T00:08:26.452Z,2.70
2019-02-09T00:09:31.621Z,2.70
2019-02-09T00:10:36.508Z,2.70
2019-02-09T00:11:41.331Z,2.70
2019-02-09T00:12:46.332Z,2.70
2019-02-09T00:13:51.683Z,2.70
2019-02-09T00:14:56.635Z,2.70
2019-02-09T00:16:01.380Z,2.70
2019-02-09T00:17:06.385Z,2.70
2019-02-09T00:18:11.356Z,2.70
2019-02-09T00:19:16.166Z,2.70
2019-02-09T00:20:21.344Z,2.70
2019-02-09T00:21:26.114Z,2.70
2019-02-09T00:22:30.929Z,2.70
2019-02-09T00:23:35.963Z,2.70
2019-02-09T00:24:40.753Z,2.70
2019-02-09T00:25:45.599Z,2.70
2019-02-09T00:26:50.471Z,2.70
2019-02-09T00:27:55.225Z,2.70
2019-02-09T00:29:00.069Z,2.70
2019-02-09T00:30:06.535Z,2.70
2019-02-09T00:31:11.328Z,2.70
2019-02-09T00:32:16.148Z,2.70
2019-02-09T00:33:20.921Z,2.70
2019-02-09T00:34:25.758Z,2.70
2019-02-09T00:35:30.994Z,2.70
2019-02-09T00:36:35.764Z,2.70
2019-02-09T00:37:40.538Z,2.80
2019-02-09T00:38:45.300Z,2.70
2019-02-09T00:39:50.064Z,2.70
2019-02-09T00:40:54.859Z,2.80
2019-02-09T00:41:59.696Z,2.80
2019-02-09T00:43:05.012Z,2.70
2019-02-09T00:44:09.905Z,2.70
2019-02-09T00:45:15.405Z,2.80
2019-02-09T00:46:20.233Z,2.80
2019-02-09T00:47:25.028Z,2.80
2019-02-09T00:48:29.886Z,2.80
2019-02-09T00:49:34.686Z,2.80
2019-02-09T00:50:39.575Z,2.80
2019-02-09T00:51:44.516Z,2.80
2019-02-09T00:52:49.303Z,2.80
2019-02-09T00:53:54.161Z,2.80
2019-02-09T00:54:59.036Z,2.80
2019-02-09T00:56:04.116Z,2.90
2019-02-09T00:57:09.044Z,2.90
2019-02-09T00:58:13.964Z,2.90
2019-02-09T00:59:18.888Z,2.90
2019-02-09T01:00:25.328Z,3.00
2019-02-09T01:01:30.248Z,3.00
2019-02-09T01:02:35.245Z,2.90
2019-02-09T01:03:40.013Z,2.90
2019-02-09T01:04:45.012Z,3.00
2019-02-09T01:05:50.044Z,3.00
2019-02-09T01:06:55.093Z,3.00
2019-02-09T01:08:00.225Z,3.00
2019-02-09T01:09:11.064Z,3.00
2019-02-09T01:10:16.340Z,3.10
2019-02-09T01:11:21.309Z,3.00
2019-02-09T01:12:26.077Z,3.10
2019-02-09T01:13:31.361Z,3.10
2019-02-09T01:14:36.254Z,3.10
2019-02-09T01:15:41.156Z,3.10
2019-02-09T01:16:45.865Z,3.10
2019-02-09T01:17:50.747Z,3.20
2019-02-09T01:18:55.696Z,3.10
2019-02-09T01:20:00.451Z,3.20
2019-02-09T01:21:05.484Z,3.20
2019-02-09T01:22:10.384Z,3.10
2019-02-09T01:23:15.153Z,3.20
2019-02-09T01:24:20.125Z,3.10
2019-02-09T01:25:25.167Z,3.10
2019-02-09T01:26:30.016Z,3.10
2019-02-09T01:27:34.900Z,3.20
2019-02-09T01:28:39.756Z,3.10
2019-02-09T01:29:44.598Z,3.20
2019-02-09T01:30:49.425Z,3.10
2019-02-09T01:31:54.313Z,3.20
2019-02-09T01:32:59.417Z,3.10
2019-02-09T01:34:04.210Z,3.20
2019-02-09T01:35:09.540Z,3.20
2019-02-09T01:36:14.417Z,3.20
2019-02-09T01:37:19.210Z,3.20
2019-02-09T01:38:23.943Z,3.20
2019-02-09T01:39:28.932Z,3.10
2019-02-09T01:40:33.927Z,3.10
2019-02-09T01:41:38.809Z,3.10
2019-02-09T01:42:43.652Z,3.10
2019-02-09T01:43:48.552Z,3.10
2019-02-09T01:44:53.440Z,3.10
2019-02-09T01:45:58.216Z,3.00
2019-02-09T01:47:03.101Z,3.00
2019-02-09T01:48:08.029Z,3.00
2019-02-09T01:49:13.087Z,3.10
2019-02-09T01:50:18.612Z,3.00
2019-02-09T01:51:23.564Z,3.00
2019-02-09T01:52:28.429Z,3.00
2019-02-09T01:53:33.224Z,3.00
2019-02-09T01:54:38.072Z,3.00
2019-02-09T01:55:42.952Z,3.00
2019-02-09T01:56:47.838Z,3.00
2019-02-09T01:57:52.729Z,3.10
2019-02-09T01:58:57.564Z,3.00
2019-02-09T02:00:10.240Z,3.00
2019-02-09T02:01:09.220Z,3.00
2019-02-09T02:02:13.991Z,3.00
2019-02-09T02:03:18.743Z,3.00
2019-02-09T02:04:23.677Z,3.00
2019-02-09T02:05:28.925Z,3.00
2019-02-09T02:06:33.703Z,3.00
2019-02-09T02:07:38.512Z,3.00
2019-02-09T02:08:43.401Z,3.00
2019-02-09T02:09:48.340Z,3.00
2019-02-09T02:10:53.301Z,3.00
2019-02-09T02:11:58.248Z,3.00
2019-02-09T02:13:03.633Z,3.00
2019-02-09T02:14:08.760Z,3.00
2019-02-09T02:15:16.553Z,3.00
2019-02-09T02:16:21.314Z,3.00
2019-02-09T02:17:26.182Z,3.00
2019-02-09T02:18:31.260Z,2.90
2019-02-09T02:19:36.145Z,3.00
2019-02-09T02:20:41.049Z,2.90
2019-02-09T02:21:45.988Z,2.90
2019-02-09T02:22:51.065Z,2.90
2019-02-09T02:23:55.917Z,2.90
2019-02-09T02:25:00.744Z,2.90
2019-02-09T02:26:05.735Z,2.80
2019-02-09T02:27:10.623Z,2.90
2019-02-09T02:28:15.418Z,2.90
2019-02-09T02:29:20.260Z,2.90
2019-02-09T02:30:27.369Z,2.90
2019-02-09T02:31:32.258Z,2.90
2019-02-09T02:32:37.113Z,2.90
2019-02-09T02:33:41.976Z,2.90
2019-02-09T02:34:46.960Z,2.90
2019-02-09T02:35:51.824Z,2.90
2019-02-09T02:36:56.583Z,2.90
2019-02-09T02:38:01.465Z,2.90
2019-02-09T02:39:10.401Z,2.80
2019-02-09T02:40:16.304Z,2.90
2019-02-09T02:41:21.216Z,2.90
2019-02-09T02:42:26.076Z,2.90
2019-02-09T02:43:30.898Z,2.90
2019-02-09T02:44:35.812Z,2.90
2019-02-09T02:45:40.761Z,2.90
2019-02-09T02:46:45.594Z,2.90
2019-02-09T02:47:50.488Z,2.90
2019-02-09T02:48:55.389Z,2.90
2019-02-09T02:50:00.304Z,2.90
2019-02-09T02:51:05.596Z,2.90
2019-02-09T02:52:10.352Z,3.00
2019-02-09T02:53:16.522Z,2.90
2019-02-09T02:54:21.524Z,3.00
2019-02-09T02:55:27.543Z,2.90
2019-02-09T02:56:32.408Z,2.90
2019-02-09T02:57:37.265Z,2.90
2019-02-09T02:58:42.009Z,2.90
2019-02-09T02:59:46.884Z,2.90
2019-02-09T03:00:51.750Z,2.90
2019-02-09T03:01:56.633Z,2.90
2019-02-09T03:03:01.640Z,2.90
2019-02-09T03:04:06.709Z,2.90
2019-02-09T03:05:13.873Z,2.90
2019-02-09T03:06:18.744Z,2.80
2019-02-09T03:07:23.524Z,2.80
2019-02-09T03:08:28.429Z,2.80
2019-02-09T03:09:33.272Z,2.90
2019-02-09T03:10:38.032Z,2.80
2019-02-09T03:11:42.837Z,2.70
2019-02-09T03:12:47.958Z,2.70
2019-02-09T03:13:52.904Z,2.70
2019-02-09T03:14:57.713Z,2.70
2019-02-09T03:16:02.720Z,2.70
2019-02-09T03:17:07.566Z,2.70
2019-02-09T03:18:12.477Z,2.70
2019-02-09T03:19:19.164Z,2.70
2019-02-09T03:20:24.094Z,2.70
2019-02-09T03:21:28.908Z,2.70
2019-02-09T03:22:33.725Z,2.70
2019-02-09T03:23:38.508Z,2.70
2019-02-09T03:24:43.388Z,2.70
2019-02-09T03:25:48.330Z,2.70
2019-02-09T03:26:53.066Z,2.70
2019-02-09T03:27:57.941Z,2.70
2019-02-09T03:29:02.848Z,2.70
2019-02-09T03:30:08.993Z,2.70
2019-02-09T03:31:13.743Z,2.70
2019-02-09T03:32:18.709Z,2.70
2019-02-09T03:33:23.557Z,2.70
2019-02-09T03:34:28.336Z,2.70
2019-02-09T03:35:33.132Z,2.60
2019-02-09T03:36:38.020Z,2.60
2019-02-09T03:37:43.037Z,2.60
2019-02-09T03:38:51.107Z,2.60
2019-02-09T03:39:56.024Z,2.60
2019-02-09T03:41:00.933Z,2.60
2019-02-09T03:42:05.803Z,2.60
2019-02-09T03:43:10.743Z,2.60
2019-02-09T03:44:15.641Z,2.60
2019-02-09T03:45:39.492Z,2.60
2019-02-09T03:46:44.381Z,2.60
2019-02-09T03:47:50.156Z,2.60
2019-02-09T03:48:55.005Z,2.60
2019-02-09T03:49:59.942Z,2.60
2019-02-09T03:51:04.989Z,2.60
2019-02-09T03:52:09.832Z,2.60
2019-02-09T03:53:14.905Z,2.60
2019-02-09T03:54:19.779Z,2.60
2019-02-09T03:55:25.009Z,2.60
2019-02-09T03:56:29.873Z,2.60
2019-02-09T03:57:34.721Z,2.60
2019-02-09T03:58:39.529Z,2.60
2019-02-09T03:59:44.471Z,2.60
2019-02-09T04:00:55.153Z,2.60
2019-02-09T04:01:56.140Z,2.60
2019-02-09T04:03:01.809Z,2.60
2019-02-09T04:04:06.872Z,2.70
2019-02-09T04:05:12.068Z,2.60
2019-02-09T04:06:16.928Z,2.70
2019-02-09T04:07:21.800Z,2.70
2019-02-09T04:08:26.710Z,2.70
2019-02-09T04:09:31.516Z,2.60
2019-02-09T04:10:36.583Z,2.60
2019-02-09T04:11:41.596Z,2.60
2019-02-09T04:12:46.519Z,2.60
2019-02-09T04:13:51.321Z,2.70
2019-02-09T04:14:57.182Z,2.60
2019-02-09T04:16:02.179Z,2.60
2019-02-09T04:17:07.118Z,2.60
2019-02-09T04:18:12.008Z,2.60
2019-02-09T04:19:16.894Z,2.60
2019-02-09T04:20:22.631Z,2.60
2019-02-09T04:21:27.393Z,2.70
2019-02-09T04:22:32.258Z,2.70
2019-02-09T04:23:37.144Z,2.70
2019-02-09T04:24:42.044Z,2.70
2019-02-09T04:25:47.134Z,2.70
2019-02-09T04:26:51.893Z,2.70
2019-02-09T04:27:56.780Z,2.70
2019-02-09T04:29:01.564Z,2.70
2019-02-09T04:30:10.512Z,2.70
2019-02-09T04:31:15.741Z,2.70
2019-02-09T04:32:20.607Z,2.70
2019-02-09T04:33:25.450Z,2.70
2019-02-09T04:34:30.313Z,2.70
2019-02-09T04:35:35.302Z,2.70
2019-02-09T04:36:40.028Z,2.70
2019-02-09T04:37:45.043Z,2.70
2019-02-09T04:38:53.008Z,2.60
2019-02-09T04:39:57.824Z,2.60
2019-02-09T04:41:02.737Z,2.60
2019-02-09T04:42:07.916Z,2.60
2019-02-09T04:43:12.717Z,2.70
2019-02-09T04:44:17.495Z,2.60
2019-02-09T04:45:22.483Z,2.70
2019-02-09T04:46:27.402Z,2.70
2019-02-09T04:47:32.273Z,2.70
2019-02-09T04:48:37.028Z,2.70
2019-02-09T04:49:41.888Z,2.70
2019-02-09T04:50:46.793Z,2.70
2019-02-09T04:51:51.629Z,2.80
2019-02-09T04:52:56.504Z,2.70
2019-02-09T04:54:01.369Z,2.80
2019-02-09T04:55:08.927Z,2.80
2019-02-09T04:56:13.756Z,2.80
2019-02-09T04:57:18.605Z,2.80
2019-02-09T04:58:23.488Z,2.80
2019-02-09T04:59:28.402Z,2.80
2019-02-09T05:00:33.470Z,2.80
2019-02-09T05:01:38.401Z,2.80
2019-02-09T05:02:43.386Z,2.90
2019-02-09T05:03:50.981Z,2.90
2019-02-09T05:04:55.825Z,2.90
2019-02-09T05:06:00.894Z,2.90
2019-02-09T05:07:05.761Z,3.00
2019-02-09T05:08:10.559Z,3.00
2019-02-09T05:09:15.504Z,3.00
2019-02-09T05:10:20.938Z,3.00
2019-02-09T05:11:25.767Z,3.00
2019-02-09T05:12:30.652Z,3.00
2019-02-09T05:13:35.431Z,3.00
2019-02-09T05:14:40.372Z,3.00
2019-02-09T05:15:45.212Z,3.00
2019-02-09T05:16:50.024Z,3.00
2019-02-09T05:17:55.036Z,3.00
2019-02-09T05:18:59.933Z,3.00
2019-02-09T05:20:05.516Z,3.00
2019-02-09T05:21:10.547Z,3.10
2019-02-09T05:22:15.389Z,3.10
2019-02-09T05:23:20.276Z,3.00
2019-02-09T05:24:25.065Z,3.10
2019-02-09T05:25:30.068Z,3.10
2019-02-09T05:26:34.955Z,3.10
2019-02-09T05:27:39.900Z,3.10
2019-02-09T05:28:44.725Z,3.10
2019-02-09T05:29:49.851Z,3.10
2019-02-09T05:30:54.739Z,3.10
2019-02-09T05:31:59.670Z,3.10
2019-02-09T05:33:04.607Z,3.20
2019-02-09T05:34:12.356Z,3.20
2019-02-09T05:35:17.437Z,3.20
2019-02-09T05:36:22.384Z,3.20
2019-02-09T05:37:27.351Z,3.20
2019-02-09T05:38:32.135Z,3.20
2019-02-09T05:39:36.970Z,3.20
2019-02-09T05:40:41.761Z,3.20
2019-02-09T05:41:46.702Z,3.20
2019-02-09T05:42:51.557Z,3.20
2019-02-09T05:43:56.325Z,3.20
2019-02-09T05:45:01.071Z,3.20
2019-02-09T05:46:06.248Z,3.10
2019-02-09T05:47:11.184Z,3.10
2019-02-09T05:48:16.070Z,3.10
2019-02-09T05:49:20.974Z,3.20
2019-02-09T05:50:26.239Z,3.20
2019-02-09T05:51:31.349Z,3.10
2019-02-09T05:52:36.246Z,3.20
2019-02-09T05:53:41.010Z,3.10
2019-02-09T05:54:45.872Z,3.10
2019-02-09T05:55:50.944Z,3.20
2019-02-09T05:56:55.865Z,3.10
2019-02-09T05:58:00.703Z,3.20
2019-02-09T05:59:07.410Z,3.20
2019-02-09T06:00:16.471Z,3.20
2019-02-09T06:01:21.354Z,3.20
2019-02-09T06:02:26.299Z,3.20
2019-02-09T06:03:31.191Z,3.30
2019-02-09T06:04:35.997Z,3.20
2019-02-09T06:05:40.993Z,3.20
2019-02-09T06:06:45.840Z,3.20
2019-02-09T06:07:50.883Z,3.20
2019-02-09T06:08:55.716Z,3.20
2019-02-09T06:10:00.569Z,3.20
2019-02-09T06:11:05.396Z,3.20
2019-02-09T06:12:13.217Z,3.20
2019-02-09T06:13:18.040Z,3.20
2019-02-09T06:14:22.839Z,3.20
2019-02-09T06:15:27.825Z,3.30
2019-02-09T06:16:32.713Z,3.20
2019-02-09T06:17:37.718Z,3.20
2019-02-09T06:18:42.525Z,3.30
2019-02-09T06:19:47.328Z,3.20
2019-02-09T06:20:52.352Z,3.30
2019-02-09T06:21:57.252Z,3.30
2019-02-09T06:23:02.359Z,3.30
2019-02-09T06:24:07.420Z,3.30
2019-02-09T06:25:12.577Z,3.30
2019-02-09T06:26:17.512Z,3.30
2019-02-09T06:27:22.493Z,3.30
2019-02-09T06:28:27.420Z,3.30
2019-02-09T06:29:32.813Z,3.30
2019-02-09T06:30:37.827Z,3.40
2019-02-09T06:31:42.729Z,3.40
2019-02-09T06:32:47.507Z,3.40
2019-02-09T06:33:52.420Z,3.40
2019-02-09T06:34:57.319Z,3.50
2019-02-09T06:36:02.112Z,3.50
2019-02-09T06:37:06.956Z,3.50
2019-02-09T06:38:12.197Z,3.50
2019-02-09T06:39:17.080Z,3.50
2019-02-09T06:40:22.254Z,3.50
2019-02-09T06:41:27.294Z,3.50
2019-02-09T06:42:32.246Z,3.50
2019-02-09T06:43:37.085Z,3.50
2019-02-09T06:44:42.005Z,3.50
2019-02-09T06:45:47.037Z,3.50
2019-02-09T06:46:51.921Z,3.50
2019-02-09T06:48:26.219Z,3.50
2019-02-09T06:49:31.164Z,3.50
2019-02-09T06:50:36.134Z,3.50
2019-02-09T06:51:41.098Z,3.40
2019-02-09T06:52:46.135Z,3.50
2019-02-09T06:53:51.182Z,3.50
2019-02-09T06:54:56.044Z,3.50
2019-02-09T06:56:00.946Z,3.40
2019-02-09T06:57:06.141Z,3.40
2019-02-09T06:58:11.131Z,3.40
2019-02-09T06:59:16.025Z,3.30
2019-02-09T07:00:21.476Z,3.30
2019-02-09T07:01:26.776Z,3.30
2019-02-09T07:02:32.026Z,3.30
2019-02-09T07:03:37.206Z,3.30
2019-02-09T07:04:42.153Z,3.30
2019-02-09T07:05:47.257Z,3.30
2019-02-09T07:06:52.554Z,3.30
2019-02-09T07:07:58.460Z,3.30
2019-02-09T07:09:04.323Z,3.30
2019-02-09T07:10:12.060Z,3.30
2019-02-09T07:11:17.121Z,3.30
2019-02-09T07:12:22.144Z,3.30
2019-02-09T07:13:27.165Z,3.30
2019-02-09T07:14:32.228Z,3.30
2019-02-09T07:15:38.245Z,3.30
2019-02-09T07:16:43.381Z,3.30
2019-02-09T07:17:48.517Z,3.30
2019-02-09T07:18:53.460Z,3.30
2019-02-09T07:19:58.364Z,3.30
2019-02-09T07:21:03.307Z,3.30
2019-02-09T07:22:08.232Z,3.30
2019-02-09T07:23:13.256Z,3.30
2019-02-09T07:24:18.454Z,3.30
2019-02-09T07:25:23.710Z,3.30
2019-02-09T07:26:28.762Z,3.30
2019-02-09T07:27:33.641Z,3.30
2019-02-09T07:28:38.549Z,3.30
2019-02-09T07:29:43.532Z,3.30
2019-02-09T07:30:48.588Z,3.40
2019-02-09T07:31:56.570Z,3.30
2019-02-09T07:33:01.457Z,3.30
2019-02-09T07:34:06.697Z,3.40
2019-02-09T07:35:13.077Z,3.30
2019-02-09T07:36:18.055Z,3.40
2019-02-09T07:37:23.177Z,3.40
2019-02-09T07:38:28.424Z,3.40
2019-02-09T07:39:33.252Z,3.40
2019-02-09T07:40:38.209Z,3.30
2019-02-09T07:41:43.288Z,3.30
2019-02-09T07:42:48.401Z,3.30
2019-02-09T07:43:53.404Z,3.30
2019-02-09T07:44:58.442Z,3.40
2019-02-09T07:46:03.727Z,3.30
2019-02-09T07:47:08.924Z,3.30
2019-02-09T07:48:13.964Z,3.30
2019-02-09T07:49:18.771Z,3.30
2019-02-09T07:50:24.950Z,3.30
2019-02-09T07:51:29.936Z,3.30
2019-02-09T07:52:34.816Z,3.30
2019-02-09T07:53:39.737Z,3.30
2019-02-09T07:54:44.736Z,3.30
2019-02-09T07:55:49.580Z,3.30
2019-02-09T07:56:54.703Z,3.30
2019-02-09T07:57:59.652Z,3.30
2019-02-09T07:59:05.061Z,3.30
2019-02-09T08:00:31.521Z,3.30
2019-02-09T08:01:36.558Z,3.20
2019-02-09T08:02:41.592Z,3.30
2019-02-09T08:03:46.408Z,3.30
2019-02-09T08:04:51.372Z,3.20
2019-02-09T08:05:56.303Z,3.30
2019-02-09T08:07:01.418Z,3.30
2019-02-09T08:08:06.783Z,3.30
2019-02-09T08:09:13.661Z,3.30
2019-02-09T08:10:20.828Z,3.30
2019-02-09T08:11:26.059Z,3.30
2019-02-09T08:12:31.005Z,3.30
2019-02-09T08:13:36.093Z,3.30
2019-02-09T08:14:41.187Z,3.30
2019-02-09T08:15:46.317Z,3.30
2019-02-09T08:16:51.187Z,3.30
2019-02-09T08:17:55.984Z,3.30
2019-02-09T08:19:01.039Z,3.30
2019-02-09T08:20:07.066Z,3.30
2019-02-09T08:21:12.228Z,3.30
2019-02-09T08:22:17.014Z,3.30
2019-02-09T08:23:22.063Z,3.30
2019-02-09T08:24:26.993Z,3.30
2019-02-09T08:25:34.160Z,3.30
2019-02-09T08:26:39.173Z,3.40
2019-02-09T08:27:44.385Z,3.40
2019-02-09T08:28:49.445Z,3.40
2019-02-09T08:29:54.612Z,3.40
2019-02-09T08:30:59.578Z,3.40
2019-02-09T08:32:12.260Z,3.40
2019-02-09T08:33:12.240Z,3.40
2019-02-09T08:34:20.248Z,3.40
2019-02-09T08:35:25.560Z,3.50
2019-02-09T08:36:30.438Z,3.40
2019-02-09T08:37:35.265Z,3.40
2019-02-09T08:38:40.685Z,3.40
2019-02-09T08:39:46.657Z,3.40
2019-02-09T08:40:51.792Z,3.40
2019-02-09T08:41:56.695Z,3.50
2019-02-09T08:43:01.652Z,3.40
2019-02-09T08:44:06.896Z,3.40
2019-02-09T08:45:16.521Z,3.50
2019-02-09T08:46:21.604Z,3.50
2019-02-09T08:47:26.538Z,3.50
2019-02-09T08:48:31.596Z,3.50
2019-02-09T08:49:36.812Z,3.50
2019-02-09T08:50:45.135Z,3.60
2019-02-09T08:51:50.045Z,3.50
2019-02-09T08:52:55.054Z,3.50
2019-02-09T08:54:00.207Z,3.50
2019-02-09T08:55:06.083Z,3.50
2019-02-09T08:56:11.150Z,3.50
2019-02-09T08:57:16.176Z,3.50
2019-02-09T08:58:21.120Z,3.50
2019-02-09T08:59:26.259Z,3.60
2019-02-09T09:00:32.453Z,3.60
2019-02-09T09:01:37.284Z,3.60
2019-02-09T09:02:42.375Z,3.60
2019-02-09T09:03:47.659Z,3.60
2019-02-09T09:04:52.736Z,3.60
2019-02-09T09:05:58.193Z,3.60
2019-02-09T09:07:03.321Z,3.60
2019-02-09T09:08:08.441Z,3.60
2019-02-09T09:09:13.948Z,3.60
2019-02-09T09:10:20.285Z,3.60
2019-02-09T09:11:25.262Z,3.60
2019-02-09T09:12:30.370Z,3.50
2019-02-09T09:13:35.192Z,3.50
2019-02-09T09:14:39.965Z,3.50
2019-02-09T09:15:56.080Z,3.50
2019-02-09T09:17:01.108Z,3.60
2019-02-09T09:18:06.529Z,3.60
2019-02-09T09:19:11.433Z,3.60
2019-02-09T09:20:25.227Z,3.60
2019-02-09T09:21:30.228Z,3.70
2019-02-09T09:22:35.247Z,3.70
2019-02-09T09:23:40.161Z,3.70
2019-02-09T09:24:45.113Z,3.60
2019-02-09T09:25:54.829Z,3.70
2019-02-09T09:26:59.829Z,3.70
2019-02-09T09:28:04.828Z,3.70
2019-02-09T09:29:09.877Z,3.70
2019-02-09T09:30:17.650Z,3.70
2019-02-09T09:31:22.798Z,3.70
2019-02-09T09:32:28.847Z,3.70
2019-02-09T09:33:33.905Z,3.80
2019-02-09T09:34:38.881Z,3.80
2019-02-09T09:35:43.993Z,3.80
2019-02-09T09:36:48.849Z,3.80
2019-02-09T09:37:53.947Z,3.80
2019-02-09T09:38:58.889Z,3.90
2019-02-09T09:40:04.184Z,3.80
2019-02-09T09:41:09.235Z,3.80
2019-02-09T09:42:14.341Z,3.90
2019-02-09T09:43:19.613Z,3.90
2019-02-09T09:44:24.468Z,3.90
2019-02-09T09:45:31.753Z,3.90
2019-02-09T09:46:36.697Z,4.00
2019-02-09T09:47:41.536Z,4.00
2019-02-09T09:48:46.608Z,4.00
2019-02-09T09:49:51.598Z,4.00
2019-02-09T09:50:56.570Z,4.00
2019-02-09T09:52:01.431Z,4.00
2019-02-09T09:53:06.809Z,4.10
2019-02-09T09:54:11.729Z,4.10
2019-02-09T09:55:16.972Z,4.10
2019-02-09T09:56:21.879Z,4.10
2019-02-09T09:57:26.713Z,4.10
2019-02-09T09:58:31.932Z,4.10
2019-02-09T09:59:36.945Z,4.10
2019-02-09T10:00:42.040Z,4.20
2019-02-09T10:01:47.123Z,4.20
2019-02-09T10:02:52.295Z,4.20
2019-02-09T10:03:57.420Z,4.20
2019-02-09T10:05:04.300Z,4.30
2019-02-09T10:06:09.191Z,4.30
2019-02-09T10:07:14.121Z,4.30
2019-02-09T10:08:19.062Z,4.30
2019-02-09T10:09:23.990Z,4.30
2019-02-09T10:10:29.152Z,4.30
2019-02-09T10:11:34.105Z,4.30
2019-02-09T10:12:39.113Z,4.30
2019-02-09T10:13:44.303Z,4.30
2019-02-09T10:14:49.622Z,4.30
2019-02-09T10:15:54.688Z,4.40
2019-02-09T10:16:59.784Z,4.40
2019-02-09T10:18:10.859Z,4.40
2019-02-09T10:19:18.051Z,4.40
2019-02-09T10:20:24.473Z,4.30
2019-02-09T10:21:29.541Z,4.40
2019-02-09T10:22:34.499Z,4.40
2019-02-09T10:23:39.424Z,4.40
2019-02-09T10:24:44.556Z,4.40
2019-02-09T10:25:49.640Z,4.40
2019-02-09T10:26:54.825Z,4.50
2019-02-09T10:27:59.785Z,4.50
2019-02-09T10:29:04.824Z,4.50
2019-02-09T10:30:13.380Z,4.60
2019-02-09T10:31:18.247Z,4.60
2019-02-09T10:32:23.093Z,4.70
2019-02-09T10:33:28.029Z,4.70
2019-02-09T10:34:33.114Z,4.60
2019-02-09T10:35:38.221Z,4.60
2019-02-09T10:36:43.167Z,4.70
2019-02-09T10:37:48.246Z,4.70
2019-02-09T10:38:53.141Z,4.70
2019-02-09T10:39:58.145Z,4.70
2019-02-09T10:41:03.092Z,4.70
2019-02-09T10:42:08.376Z,4.70
2019-02-09T10:43:13.354Z,4.70
2019-02-09T10:44:18.290Z,4.70
2019-02-09T10:45:24.846Z,4.70
2019-02-09T10:46:30.204Z,4.70
2019-02-09T10:47:35.605Z,4.70
2019-02-09T10:48:40.508Z,4.80
2019-02-09T10:49:45.333Z,4.80
2019-02-09T10:50:50.307Z,4.90
2019-02-09T10:51:55.642Z,5.00
2019-02-09T10:53:00.933Z,5.00
2019-02-09T10:54:06.452Z,5.00
2019-02-09T10:55:11.804Z,5.10
2019-02-09T10:56:16.815Z,5.10
2019-02-09T10:57:21.924Z,5.10
2019-02-09T10:58:27.055Z,5.20
2019-02-09T10:59:31.884Z,5.30
2019-02-09T11:00:48.476Z,5.20
2019-02-09T11:01:53.506Z,5.20
2019-02-09T11:02:58.806Z,5.20
2019-02-09T11:04:03.968Z,5.20
2019-02-09T11:05:10.292Z,5.20
2019-02-09T11:06:15.242Z,5.20
2019-02-09T11:07:20.300Z,5.20
2019-02-09T11:08:25.357Z,5.20
2019-02-09T11:09:30.449Z,5.20
2019-02-09T11:10:35.742Z,5.20
2019-02-09T11:11:40.935Z,5.40
2019-02-09T11:12:45.908Z,5.50
2019-02-09T11:13:51.078Z,5.40
2019-02-09T11:14:56.314Z,5.50
2019-02-09T11:16:01.669Z,5.50
2019-02-09T11:17:06.865Z,5.50
2019-02-09T11:18:12.137Z,5.40
2019-02-09T11:19:17.204Z,5.30
2019-02-09T11:20:22.403Z,5.30
2019-02-09T11:21:27.469Z,5.30
2019-02-09T11:22:32.611Z,5.30
2019-02-09T11:23:37.807Z,5.20
2019-02-09T11:24:42.885Z,5.30
2019-02-09T11:25:47.965Z,5.30
2019-02-09T11:26:53.239Z,5.20
2019-02-09T11:27:58.358Z,5.10
2019-02-09T11:29:03.335Z,4.90
2019-02-09T11:30:11.640Z,4.80
2019-02-09T11:31:16.934Z,4.70
2019-02-09T11:32:21.928Z,4.70
2019-02-09T11:33:26.796Z,4.70
2019-02-09T11:34:31.677Z,4.60
2019-02-09T11:35:36.546Z,4.50
2019-02-09T11:36:41.730Z,4.50
2019-02-09T11:37:46.937Z,4.40
2019-02-09T11:38:52.112Z,4.30
2019-02-09T11:39:57.066Z,4.30
2019-02-09T11:41:02.024Z,4.20
2019-02-09T11:42:07.270Z,4.10
2019-02-09T11:43:12.108Z,4.10
2019-02-09T11:44:16.956Z,4.10
2019-02-09T11:45:24.644Z,4.10
2019-02-09T11:46:29.535Z,4.10
2019-02-09T11:47:34.488Z,4.10
2019-02-09T11:48:39.578Z,4.10
2019-02-09T11:49:44.455Z,4.10
2019-02-09T11:50:49.452Z,4.10
2019-02-09T11:51:54.465Z,4.10
2019-02-09T11:52:59.500Z,4.20
2019-02-09T11:54:04.939Z,4.20
2019-02-09T11:55:10.503Z,4.20
2019-02-09T11:56:15.413Z,4.30
2019-02-09T11:57:20.351Z,4.30
2019-02-09T11:58:25.416Z,4.30
2019-02-09T11:59:30.300Z,4.30
2019-02-09T12:00:46.963Z,4.30
2019-02-09T12:01:52.080Z,4.30
2019-02-09T12:03:02.957Z,4.30
2019-02-09T12:04:03.841Z,4.40
2019-02-09T12:05:09.061Z,4.30
2019-02-09T12:06:14.313Z,4.40
2019-02-09T12:07:19.309Z,4.40
2019-02-09T12:08:24.196Z,4.40
2019-02-09T12:09:29.235Z,4.30
2019-02-09T12:10:34.266Z,4.30
2019-02-09T12:11:39.270Z,4.30
2019-02-09T12:12:44.350Z,4.40
2019-02-09T12:13:55.237Z,4.30
2019-02-09T12:14:55.847Z,4.30
2019-02-09T12:16:01.003Z,4.30
2019-02-09T12:17:06.500Z,4.40
2019-02-09T12:18:11.714Z,4.40
2019-02-09T12:19:16.585Z,4.30
2019-02-09T12:20:21.825Z,4.40
2019-02-09T12:21:26.712Z,4.40
2019-02-09T12:22:31.711Z,4.40
2019-02-09T12:23:36.764Z,4.40
2019-02-09T12:24:41.971Z,4.40
2019-02-09T12:25:47.141Z,4.40
2019-02-09T12:26:52.152Z,4.30
2019-02-09T12:27:57.045Z,4.30
2019-02-09T12:29:04.974Z,4.20
2019-02-09T12:30:12.001Z,4.20
2019-02-09T12:31:16.999Z,4.20
2019-02-09T12:32:21.792Z,4.20
2019-02-09T12:33:26.698Z,4.20
2019-02-09T12:34:31.697Z,4.30
2019-02-09T12:35:36.901Z,4.30
2019-02-09T12:36:42.192Z,4.20
2019-02-09T12:37:47.124Z,4.20
2019-02-09T12:38:52.114Z,4.20
2019-02-09T12:39:57.066Z,4.20
2019-02-09T12:41:01.936Z,4.20
2019-02-09T12:42:07.176Z,4.10
2019-02-09T12:43:12.157Z,4.00
2019-02-09T12:44:17.134Z,4.00
2019-02-09T12:45:22.974Z,3.90
2019-02-09T12:46:27.885Z,3.90
2019-02-09T12:47:33.170Z,3.80
2019-02-09T12:48:38.039Z,3.80
2019-02-09T12:49:42.832Z,3.80
2019-02-09T12:50:47.706Z,3.70
2019-02-09T12:51:52.623Z,3.60
2019-02-09T12:52:58.179Z,3.60
2019-02-09T12:54:03.052Z,3.60
2019-02-09T12:55:08.217Z,3.60
2019-02-09T12:56:13.186Z,3.60
2019-02-09T12:57:18.262Z,3.40
2019-02-09T12:58:23.297Z,3.40
2019-02-09T12:59:28.103Z,3.40
2019-02-09T13:00:36.819Z,3.40
2019-02-09T13:01:41.695Z,3.40
2019-02-09T13:02:46.686Z,3.40
2019-02-09T13:03:51.642Z,3.40
2019-02-09T13:04:56.553Z,3.30
2019-02-09T13:06:01.567Z,3.30
2019-02-09T13:07:06.403Z,3.30
2019-02-09T13:08:11.401Z,3.30
2019-02-09T13:09:16.328Z,3.30
2019-02-09T13:10:21.528Z,3.30
2019-02-09T13:11:26.592Z,3.20
2019-02-09T13:12:31.469Z,3.30
2019-02-09T13:13:36.454Z,3.30
2019-02-09T13:14:41.401Z,3.30
2019-02-09T13:15:46.444Z,3.30
2019-02-09T13:16:51.281Z,3.30
2019-02-09T13:17:56.178Z,3.30
2019-02-09T13:19:01.086Z,3.30
2019-02-09T13:20:09.327Z,3.30
2019-02-09T13:21:14.363Z,3.30
2019-02-09T13:22:19.333Z,3.30
2019-02-09T13:23:24.360Z,3.40
2019-02-09T13:24:29.201Z,3.30
2019-02-09T13:25:34.279Z,3.40
2019-02-09T13:26:39.153Z,3.40
2019-02-09T13:27:44.273Z,3.40
2019-02-09T13:28:49.112Z,3.50
2019-02-09T13:29:53.953Z,3.60
2019-02-09T13:31:00.043Z,3.60
2019-02-09T13:32:05.081Z,3.60
2019-02-09T13:33:24.297Z,3.60
2019-02-09T13:34:29.178Z,3.60
2019-02-09T13:35:34.025Z,3.60
2019-02-09T13:36:38.952Z,3.60
2019-02-09T13:37:43.737Z,3.50
2019-02-09T13:38:48.570Z,3.50
2019-02-09T13:39:53.334Z,3.50
2019-02-09T13:40:58.131Z,3.50
2019-02-09T13:42:02.967Z,3.50
2019-02-09T13:43:07.979Z,3.40
2019-02-09T13:44:12.794Z,3.40
2019-02-09T13:45:20.906Z,3.40
2019-02-09T13:46:25.728Z,3.40
2019-02-09T13:47:30.449Z,3.40
2019-02-09T13:48:35.181Z,3.40
2019-02-09T13:49:39.948Z,3.30
2019-02-09T13:50:44.765Z,3.40
2019-02-09T13:51:49.733Z,3.40
2019-02-09T13:52:54.603Z,3.40
2019-02-09T13:53:59.352Z,3.40
2019-02-09T13:55:04.391Z,3.40
2019-02-09T13:56:09.294Z,3.30
2019-02-09T13:57:14.112Z,3.30
2019-02-09T13:58:18.944Z,3.30
2019-02-09T13:59:24.067Z,3.30
2019-02-09T14:00:29.498Z,3.30
2019-02-09T14:01:34.451Z,3.30
2019-02-09T14:02:39.404Z,3.30
2019-02-09T14:03:46.786Z,3.30
2019-02-09T14:04:50.900Z,3.30
2019-02-09T14:05:55.916Z,3.40
2019-02-09T14:07:01.107Z,3.30
2019-02-09T14:08:07.033Z,3.20
2019-02-09T14:09:12.002Z,3.20
2019-02-09T14:10:18.874Z,3.20
2019-02-09T14:11:24.100Z,3.20
2019-02-09T14:12:29.129Z,3.20
2019-02-09T14:13:34.120Z,3.20
2019-02-09T14:14:39.912Z,3.20
2019-02-09T14:15:44.984Z,3.20
2019-02-09T14:16:50.304Z,3.30
2019-02-09T14:17:55.588Z,3.30
2019-02-09T14:19:00.699Z,3.30
2019-02-09T14:20:05.895Z,3.30
2019-02-09T14:21:10.932Z,3.30
2019-02-09T14:22:15.941Z,3.30
2019-02-09T14:23:20.885Z,3.30
2019-02-09T14:24:26.174Z,3.40
2019-02-09T14:25:31.307Z,3.40
2019-02-09T14:26:36.609Z,3.40
2019-02-09T14:27:41.816Z,3.40
2019-02-09T14:28:46.993Z,3.40
2019-02-09T14:29:52.109Z,3.40